createdAt,value
2019-06-10T00:00:13.842Z,96568.20
2019-06-10T00:02:38.328Z,96570.29
2019-06-10T00:05:10.975Z,96576.75
2019-06-10T00:07:41.529Z,96569.75
2019-06-10T00:10:13.849Z,96553.64
2019-06-10T00:12:44.226Z,96549.75
2019-06-10T00:15:14.624Z,96539.66
2019-06-10T00:17:55.015Z,96536.61
2019-06-10T00:20:17.250Z,96531.43
2019-06-10T00:22:47.777Z,96523.77
2019-06-10T00:25:18.268Z,96523.77
2019-06-10T00:27:51.066Z,96523.77
2019-06-10T00:30:20.935Z,96524.52
2019-06-10T00:32:51.622Z,96517.13
2019-06-10T00:35:22.072Z,96522.89
2019-06-10T00:37:52.634Z,96516.43
2019-06-10T00:40:23.113Z,96509.20
2019-06-10T00:42:53.601Z,96500.02
2019-06-10T00:45:24.142Z,96487.00
2019-06-10T00:48:08.584Z,96492.01
2019-06-10T00:50:26.762Z,96489.93
2019-06-10T00:53:01.296Z,96475.17
2019-06-10T00:55:32.214Z,96474.36
2019-06-10T00:58:04.058Z,96469.14
2019-06-10T01:00:34.691Z,96469.78
2019-06-10T01:03:06.040Z,96473.63
2019-06-10T01:05:36.674Z,96472.74
2019-06-10T01:08:08.622Z,96468.61
2019-06-10T01:10:43.249Z,96475.25
2019-06-10T01:13:12.260Z,96468.47
2019-06-10T01:15:44.009Z,96469.41
2019-06-10T01:18:31.990Z,96478.44
2019-06-10T01:20:46.949Z,96469.41
2019-06-10T01:23:17.673Z,96466.31
2019-06-10T01:25:50.924Z,96463.78
2019-06-10T01:28:22.023Z,96457.21
2019-06-10T01:30:52.749Z,96466.51
2019-06-10T01:33:23.170Z,96475.19
2019-06-10T01:35:53.576Z,96474.98
2019-06-10T01:38:24.010Z,96478.86
2019-06-10T01:40:54.316Z,96474.17
2019-06-10T01:43:24.862Z,96460.70
2019-06-10T01:45:55.322Z,96455.84
2019-06-10T01:48:40.195Z,96454.97
2019-06-10T01:50:58.001Z,96457.67
2019-06-10T01:53:31.192Z,96461.52
2019-06-10T01:56:01.023Z,96448.30
2019-06-10T01:58:31.785Z,96436.70
2019-06-10T02:01:18.357Z,96452.56
2019-06-10T02:03:47.299Z,96467.26
2019-06-10T02:06:20.496Z,96457.28
2019-06-10T02:08:51.510Z,96465.30
2019-06-10T02:11:23.452Z,96457.50
2019-06-10T02:13:54.230Z,96456.55
2019-06-10T02:16:24.646Z,96454.50
2019-06-10T02:19:00.496Z,96453.27
2019-06-10T02:21:27.330Z,96430.39
2019-06-10T02:23:57.812Z,96417.91
2019-06-10T02:26:30.736Z,96384.95
2019-06-10T02:29:00.773Z,96390.71
2019-06-10T02:31:37.267Z,96398.20
2019-06-10T02:34:03.743Z,96421.73
2019-06-10T02:36:36.833Z,96415.83
2019-06-10T02:39:09.661Z,96415.67
2019-06-10T02:41:44.164Z,96432.75
2019-06-10T02:44:17.178Z,96445.09
2019-06-10T02:46:44.732Z,96458.76
2019-06-10T02:49:29.678Z,96488.02
2019-06-10T02:51:47.305Z,96492.50
2019-06-10T02:54:20.236Z,96523.47
2019-06-10T02:56:53.451Z,96570.23
2019-06-10T02:59:27.538Z,96573.94
2019-06-10T03:01:54.137Z,96585.70
2019-06-10T03:04:31.466Z,96593.11
2019-06-10T03:06:56.833Z,96589.08
2019-06-10T03:09:31.583Z,96569.95
2019-06-10T03:11:59.508Z,96565.25
2019-06-10T03:14:29.894Z,96565.67
2019-06-10T03:17:03.171Z,96539.88
2019-06-10T03:19:46.502Z,96524.80
2019-06-10T03:22:06.286Z,96497.06
2019-06-10T03:24:36.826Z,96450.60
2019-06-10T03:27:27.860Z,96416.67
2019-06-10T03:30:02.752Z,96479.05
2019-06-10T03:32:40.324Z,96511.70
2019-06-10T03:35:05.336Z,96504.86
2019-06-10T03:37:36.370Z,96475.60
2019-06-10T03:40:06.992Z,96466.33
2019-06-10T03:42:37.420Z,96480.61
2019-06-10T03:45:08.492Z,96492.01
2019-06-10T03:47:39.002Z,96462.90
2019-06-10T03:50:09.496Z,96463.04
2019-06-10T03:52:39.981Z,96432.09
2019-06-10T03:55:12.256Z,96409.52
2019-06-10T03:57:42.580Z,96395.12
2019-06-10T04:00:14.226Z,96407.40
2019-06-10T04:02:44.717Z,96410.05
2019-06-10T04:05:15.147Z,96399.81
2019-06-10T04:07:45.696Z,96399.22
2019-06-10T04:10:17.440Z,96378.42
2019-06-10T04:12:48.139Z,96367.03
2019-06-10T04:15:19.711Z,96350.42
2019-06-10T04:17:50.070Z,96347.35
2019-06-10T04:20:24.670Z,96344.24
2019-06-10T04:22:52.724Z,96336.47
2019-06-10T04:25:25.286Z,96340.66
2019-06-10T04:27:55.406Z,96327.47
2019-06-10T04:30:27.559Z,96338.34
2019-06-10T04:32:57.932Z,96348.81
2019-06-10T04:35:29.120Z,96356.45
2019-06-10T04:37:59.643Z,96352.43
2019-06-10T04:40:30.049Z,96357.27
2019-06-10T04:43:02.887Z,96357.27
2019-06-10T04:45:32.649Z,96362.55
2019-06-10T04:48:03.251Z,96370.37
2019-06-10T04:50:42.155Z,96393.17
2019-06-10T04:53:05.821Z,96399.03
2019-06-10T04:55:36.167Z,96401.38
2019-06-10T04:58:06.642Z,96413.45
2019-06-10T05:00:37.076Z,96400.78
2019-06-10T05:03:07.503Z,96411.28
2019-06-10T05:05:37.976Z,96425.93
2019-06-10T05:08:08.464Z,96423.28
2019-06-10T05:10:38.925Z,96413.28
2019-06-10T05:13:09.414Z,96397.39
2019-06-10T05:15:39.801Z,96371.34
2019-06-10T05:18:10.281Z,96386.80
2019-06-10T05:20:54.079Z,96413.72
2019-06-10T05:23:13.180Z,96401.50
2019-06-10T05:25:43.666Z,96385.77
2019-06-10T05:28:14.189Z,96385.34
2019-06-10T05:30:44.524Z,96362.66
2019-06-10T05:33:15.003Z,96371.91
2019-06-10T05:35:45.416Z,96374.45
2019-06-10T05:38:15.987Z,96388.17
2019-06-10T05:40:46.393Z,96387.36
2019-06-10T05:43:16.834Z,96398.30
2019-06-10T05:45:47.273Z,96420.74
2019-06-10T05:48:17.665Z,96350.00
2019-06-10T05:51:00.122Z,96397.83
2019-06-10T05:53:23.115Z,96419.99
2019-06-10T05:55:53.049Z,96427.20
2019-06-10T05:58:24.793Z,96481.28
2019-06-10T06:00:55.772Z,96454.89
2019-06-10T06:03:26.294Z,96484.06
2019-06-10T06:05:56.797Z,96442.44
2019-06-10T06:08:27.513Z,96396.97
2019-06-10T06:10:57.906Z,96440.23
2019-06-10T06:13:29.462Z,96488.27
2019-06-10T06:16:00.076Z,96532.63
2019-06-10T06:18:33.210Z,96512.34
2019-06-10T06:21:19.352Z,96524.33
2019-06-10T06:23:36.735Z,96509.42
2019-06-10T06:26:06.818Z,96503.72
2019-06-10T06:28:38.251Z,96498.84
2019-06-10T06:31:08.795Z,96497.98
2019-06-10T06:33:39.893Z,96502.25
2019-06-10T06:36:12.595Z,96506.94
2019-06-10T06:38:43.882Z,96497.38
2019-06-10T06:41:14.387Z,96480.13
2019-06-10T06:43:45.484Z,96441.77
2019-06-10T06:46:16.040Z,96429.88
2019-06-10T06:48:46.532Z,96433.93
2019-06-10T06:51:32.633Z,96442.89
2019-06-10T06:53:53.064Z,96434.21
2019-06-10T06:56:23.080Z,96428.50
2019-06-10T06:58:53.754Z,96487.14
2019-06-10T07:01:25.870Z,96477.86
2019-06-10T07:03:56.453Z,96496.31
2019-06-10T07:06:27.345Z,96505.39
2019-06-10T07:09:04.665Z,96504.57
2019-06-10T07:11:36.985Z,96497.23
2019-06-10T07:14:09.208Z,96496.03
2019-06-10T07:16:39.694Z,96488.17
2019-06-10T07:19:10.184Z,96507.36
2019-06-10T07:22:02.761Z,96530.52
2019-06-10T07:24:12.886Z,96533.34
2019-06-10T07:26:50.606Z,96520.98
2019-06-10T07:29:15.475Z,96504.34
2019-06-10T07:31:50.010Z,96485.22
2019-06-10T07:34:18.241Z,96461.25
2019-06-10T07:36:48.650Z,96467.09
2019-06-10T07:39:19.019Z,96471.42
2019-06-10T07:41:49.506Z,96470.11
2019-06-10T07:44:22.507Z,96466.36
2019-06-10T07:46:52.984Z,96460.71
2019-06-10T07:49:24.033Z,96469.23
2019-06-10T07:51:54.593Z,96452.91
2019-06-10T07:54:25.067Z,96440.87
2019-06-10T07:56:55.650Z,96420.36
2019-06-10T07:59:26.159Z,96410.15
2019-06-10T08:01:56.720Z,96389.83
2019-06-10T08:04:27.053Z,96400.53
2019-06-10T08:06:57.552Z,96384.34
2019-06-10T08:09:27.995Z,96374.18
2019-06-10T08:11:58.377Z,96369.05
2019-06-10T08:14:28.845Z,96374.31
2019-06-10T08:16:59.322Z,96374.38
2019-06-10T08:19:37.455Z,96375.00
2019-06-10T08:22:02.885Z,96372.03
2019-06-10T08:24:33.542Z,96384.58
2019-06-10T08:27:04.415Z,96390.30
2019-06-10T08:29:34.897Z,96384.66
2019-06-10T08:32:05.433Z,96386.92
2019-06-10T08:34:40.814Z,96394.00
2019-06-10T08:37:13.626Z,96388.86
2019-06-10T08:39:45.858Z,96384.35
2019-06-10T08:42:15.845Z,96371.16
2019-06-10T08:44:48.434Z,96357.86
2019-06-10T08:47:18.541Z,96365.45
2019-06-10T08:49:49.205Z,96365.99
2019-06-10T08:52:19.856Z,96369.22
2019-06-10T08:54:54.082Z,96373.44
2019-06-10T08:57:23.858Z,96366.23
2019-06-10T08:59:54.805Z,96375.61
2019-06-10T09:02:25.339Z,96376.08
2019-06-10T09:04:56.207Z,96371.78
2019-06-10T09:07:26.667Z,96372.30
2019-06-10T09:09:58.971Z,96367.45
2019-06-10T09:12:33.957Z,96367.27
2019-06-10T09:15:03.741Z,96372.70
2019-06-10T09:17:33.965Z,96390.61
2019-06-10T09:20:05.149Z,96378.84
2019-06-10T09:22:35.530Z,96371.28
2019-06-10T09:25:06.438Z,96397.45
2019-06-10T09:27:36.851Z,96392.11
2019-06-10T09:30:09.121Z,96378.95
2019-06-10T09:32:39.809Z,96394.66
2019-06-10T09:35:13.263Z,96393.45
2019-06-10T09:37:48.370Z,96399.22
2019-06-10T09:40:16.382Z,96394.14
2019-06-10T09:42:50.250Z,96390.55
2019-06-10T09:45:19.520Z,96377.53
2019-06-10T09:47:55.547Z,96381.48
2019-06-10T09:50:41.146Z,96373.87
2019-06-10T09:53:12.706Z,96371.77
2019-06-10T09:55:46.336Z,96359.52
2019-06-10T09:58:16.413Z,96364.62
2019-06-10T10:00:52.472Z,96359.97
2019-06-10T10:03:23.922Z,96357.17
2019-06-10T10:06:07.371Z,96351.72
2019-06-10T10:08:25.827Z,96350.03
2019-06-10T10:10:58.947Z,96356.42
2019-06-10T10:13:28.738Z,96351.78
2019-06-10T10:15:59.345Z,96359.66
2019-06-10T10:18:32.640Z,96367.64
2019-06-10T10:21:03.905Z,96354.16
2019-06-10T10:23:50.352Z,96350.02
2019-06-10T10:26:06.988Z,96348.77
2019-06-10T10:28:37.468Z,96346.24
2019-06-10T10:31:07.993Z,96337.23
2019-06-10T10:33:38.408Z,96329.23
2019-06-10T10:36:08.935Z,96338.00
2019-06-10T10:38:39.369Z,96323.72
2019-06-10T10:41:12.958Z,96309.08
2019-06-10T10:43:45.730Z,96314.22
2019-06-10T10:46:15.575Z,96295.75
2019-06-10T10:48:47.070Z,96292.69
2019-06-10T10:51:17.712Z,96282.11
2019-06-10T10:53:57.282Z,96288.78
2019-06-10T10:56:22.326Z,96281.58
2019-06-10T10:58:57.672Z,96285.18
2019-06-10T11:01:24.960Z,96282.73
2019-06-10T11:03:58.891Z,96276.64
2019-06-10T11:06:27.625Z,96269.59
2019-06-10T11:08:58.042Z,96257.38
2019-06-10T11:11:29.251Z,96243.49
2019-06-10T11:14:03.543Z,96251.09
2019-06-10T11:16:33.441Z,96254.12
2019-06-10T11:19:03.919Z,96252.86
2019-06-10T11:21:34.388Z,96247.34
2019-06-10T11:24:05.275Z,96238.41
2019-06-10T11:26:35.701Z,96236.70
2019-06-10T11:29:06.151Z,96229.88
2019-06-10T11:31:36.531Z,96223.17
2019-06-10T11:34:06.987Z,96226.14
2019-06-10T11:36:37.512Z,96221.88
2019-06-10T11:39:09.528Z,96224.55
2019-06-10T11:41:39.966Z,96210.17
2019-06-10T11:44:10.406Z,96210.09
2019-06-10T11:46:42.885Z,96210.45
2019-06-10T11:49:13.131Z,96201.97
2019-06-10T11:51:43.674Z,96202.45
2019-06-10T11:54:15.007Z,96190.47
2019-06-10T11:56:45.517Z,96192.46
2019-06-10T11:59:16.307Z,96183.36
2019-06-10T12:01:46.801Z,96178.92
2019-06-10T12:04:18.001Z,96174.73
2019-06-10T12:06:49.108Z,96171.09
2019-06-10T12:09:20.756Z,96158.69
2019-06-10T12:11:54.676Z,96160.17
2019-06-10T12:14:26.987Z,96142.98
2019-06-10T12:19:28.374Z,96137.73
2019-06-10T12:22:04.636Z,96134.97
2019-06-10T12:24:33.219Z,96135.36
2019-06-10T12:27:05.034Z,96134.46
2019-06-10T12:29:35.749Z,96132.31
2019-06-10T12:32:07.942Z,96116.23
2019-06-10T12:34:38.495Z,96105.61
2019-06-10T12:37:13.004Z,96107.04
2019-06-10T12:39:42.187Z,96093.37
2019-06-10T12:42:14.405Z,96083.42
2019-06-10T12:44:45.174Z,96067.59
2019-06-10T12:47:15.629Z,96056.09
2019-06-10T12:49:46.077Z,96057.26
2019-06-10T12:52:16.631Z,96051.39
2019-06-10T12:54:48.014Z,96058.72
2019-06-10T12:57:19.070Z,96061.23
2019-06-10T12:59:49.569Z,96054.11
2019-06-10T13:02:24.004Z,96046.61
2019-06-10T13:04:55.305Z,96050.55
2019-06-10T13:07:26.015Z,96045.07
2019-06-10T13:09:57.941Z,96046.39
2019-06-10T13:12:28.452Z,96045.48
2019-06-10T13:14:59.938Z,96029.92
2019-06-10T13:17:31.033Z,96041.38
2019-06-10T13:20:05.764Z,96023.67
2019-06-10T13:22:33.832Z,96015.68
2019-06-10T13:25:04.774Z,96007.75
2019-06-10T13:27:35.415Z,96008.48
2019-06-10T13:30:08.357Z,96008.27
2019-06-10T13:32:39.050Z,96014.16
2019-06-10T13:35:12.315Z,96003.88
2019-06-10T13:37:42.877Z,96002.47
2019-06-10T13:40:13.655Z,96001.80
2019-06-10T13:42:44.083Z,95998.98
2019-06-10T13:45:15.084Z,95997.72
2019-06-10T13:47:45.551Z,95983.20
2019-06-10T13:50:19.287Z,95972.03
2019-06-10T13:52:49.134Z,95973.71
2019-06-10T13:55:22.210Z,95966.89
2019-06-10T13:57:53.223Z,95953.50
2019-06-10T14:00:40.350Z,95957.91
2019-06-10T14:02:56.608Z,95946.78
2019-06-10T14:05:27.233Z,95949.32
2019-06-10T14:07:57.857Z,95944.00
2019-06-10T14:10:28.558Z,95946.39
2019-06-10T14:12:59.124Z,95951.03
2019-06-10T14:15:32.767Z,95951.09
2019-06-10T14:18:04.300Z,95933.56
2019-06-10T14:20:36.748Z,95932.55
2019-06-10T14:23:08.022Z,95925.63
2019-06-10T14:25:38.470Z,95919.76
2019-06-10T14:28:11.976Z,95918.53
2019-06-10T14:30:42.998Z,95906.39
2019-06-10T14:33:16.530Z,95904.38
2019-06-10T14:35:46.574Z,95900.23
2019-06-10T14:38:17.166Z,95899.63
2019-06-10T14:40:47.869Z,95886.28
2019-06-10T14:43:18.604Z,95889.51
2019-06-10T14:45:49.187Z,95872.31
2019-06-10T14:48:22.974Z,95873.59
2019-06-10T14:50:52.661Z,95865.33
2019-06-10T14:53:23.352Z,95853.58
2019-06-10T14:55:54.118Z,95852.78
2019-06-10T14:58:24.911Z,95842.55
2019-06-10T15:00:55.507Z,95833.02
2019-06-10T15:03:26.535Z,95830.02
2019-06-10T15:05:57.140Z,95837.59
2019-06-10T15:08:27.785Z,95845.28
2019-06-10T15:10:58.253Z,95857.34
2019-06-10T15:13:28.779Z,95876.73
2019-06-10T15:15:59.399Z,95881.49
2019-06-10T15:18:29.907Z,95870.60
2019-06-10T15:21:02.775Z,95873.05
2019-06-10T15:23:32.768Z,95874.23
2019-06-10T15:26:03.307Z,95906.20
2019-06-10T15:28:33.840Z,95913.36
2019-06-10T15:31:04.291Z,95911.88
2019-06-10T15:33:34.879Z,95902.43
2019-06-10T15:36:05.274Z,95902.45
2019-06-10T15:38:35.909Z,95900.05
2019-06-10T15:41:06.393Z,95898.13
2019-06-10T15:43:36.879Z,95896.73
2019-06-10T15:46:07.451Z,95895.02
2019-06-10T15:48:37.880Z,95891.41
2019-06-10T15:51:08.435Z,95888.36
2019-06-10T15:53:38.933Z,95870.83
2019-06-10T15:56:22.559Z,95873.19
2019-06-10T15:58:43.278Z,95873.33
2019-06-10T16:01:16.477Z,95860.28
2019-06-10T16:03:45.918Z,95856.40
2019-06-10T16:06:16.308Z,95852.20
2019-06-10T16:08:46.763Z,95853.94
2019-06-10T16:11:18.895Z,95874.41
2019-06-10T16:13:49.353Z,95893.80
2019-06-10T16:16:20.945Z,95934.12
2019-06-10T16:18:52.781Z,95996.46
2019-06-10T16:21:23.819Z,96016.14
2019-06-10T16:23:54.241Z,96032.75
2019-06-10T16:26:26.703Z,96103.38
2019-06-10T16:28:57.539Z,96181.94
2019-06-10T16:31:27.989Z,96243.41
2019-06-10T16:33:58.524Z,96223.30
2019-06-10T16:36:28.912Z,96174.14
2019-06-10T16:38:59.275Z,96156.27
2019-06-10T16:41:32.268Z,96173.83
2019-06-10T16:44:02.976Z,96154.25
2019-06-10T16:46:33.629Z,96142.47
2019-06-10T16:49:04.164Z,96102.73
2019-06-10T16:51:34.674Z,96066.66
2019-06-10T16:54:05.562Z,96045.24
2019-06-10T16:56:36.045Z,96045.81
2019-06-10T16:59:06.518Z,96027.30
2019-06-10T17:01:37.014Z,96047.73
2019-06-10T17:04:08.077Z,96057.48
2019-06-10T17:06:38.545Z,96069.61
2019-06-10T17:09:09.566Z,96066.69
2019-06-10T17:11:42.404Z,96057.62
2019-06-10T17:14:14.856Z,96045.05
2019-06-10T17:16:46.940Z,96042.05
2019-06-10T17:19:18.619Z,96033.84
2019-06-10T17:21:49.138Z,96014.03
2019-06-10T17:24:21.028Z,96009.70
2019-06-10T17:26:53.185Z,95982.80
2019-06-10T17:29:25.943Z,95962.37
2019-06-10T17:31:57.958Z,95962.13
2019-06-10T17:34:29.674Z,95980.28
2019-06-10T17:37:02.970Z,95984.55
2019-06-10T17:39:34.509Z,95991.77
2019-06-10T17:42:05.564Z,95993.61
2019-06-10T17:44:35.991Z,95998.80
2019-06-10T17:47:06.457Z,95994.77
2019-06-10T17:49:42.051Z,96003.95
2019-06-10T17:52:13.787Z,96000.08
2019-06-10T17:54:46.859Z,96004.23
2019-06-10T17:57:17.366Z,96020.80
2019-06-10T17:59:47.911Z,96031.92
2019-06-10T18:02:19.035Z,96029.98
2019-06-10T18:04:52.637Z,96019.87
2019-06-10T18:07:24.146Z,96026.05
2019-06-10T18:09:57.454Z,96020.32
2019-06-10T18:12:28.429Z,96015.02
2019-06-10T18:15:03.496Z,96021.13
2019-06-10T18:17:36.033Z,96023.39
2019-06-10T18:20:07.226Z,96031.36
2019-06-10T18:22:37.738Z,96031.92
2019-06-10T18:25:09.073Z,96034.02
2019-06-10T18:27:41.415Z,96041.92
2019-06-10T18:30:14.466Z,96039.00
2019-06-10T18:32:45.419Z,96042.72
2019-06-10T18:35:16.613Z,96045.61
2019-06-10T18:37:47.155Z,96043.44
2019-06-10T18:40:18.634Z,96051.91
2019-06-10T18:42:52.313Z,96059.30
2019-06-10T18:45:24.107Z,96046.53
2019-06-10T18:47:54.561Z,96048.61
2019-06-10T18:50:28.104Z,96051.73
2019-06-10T18:53:00.686Z,96057.55
2019-06-10T18:55:35.885Z,96058.02
2019-06-10T18:58:05.641Z,96056.44
2019-06-10T19:00:53.434Z,96060.13
2019-06-10T19:03:13.902Z,96066.41
2019-06-10T19:05:42.165Z,96071.38
2019-06-10T19:08:14.779Z,96064.72
2019-06-10T19:10:45.784Z,96066.96
2019-06-10T19:13:16.409Z,96064.93
2019-06-10T19:15:48.253Z,96067.42
2019-06-10T19:18:18.726Z,96068.27
2019-06-10T19:20:49.434Z,96070.84
2019-06-10T19:23:22.165Z,96068.22
2019-06-10T19:25:53.639Z,96068.36
2019-06-10T19:28:25.197Z,96057.77
2019-06-10T19:30:55.827Z,96034.31
2019-06-10T19:33:27.039Z,96036.84
2019-06-10T19:35:57.851Z,96040.44
2019-06-10T19:38:28.487Z,96049.06
2019-06-10T19:40:59.345Z,96060.33
2019-06-10T19:43:29.713Z,96061.48
2019-06-10T19:46:02.990Z,96064.13
2019-06-10T19:48:59.457Z,96054.13
2019-06-10T19:51:24.094Z,96059.34
2019-06-10T19:53:54.627Z,96064.16
2019-06-10T19:56:26.527Z,96058.63
2019-06-10T19:58:57.049Z,96056.78
2019-06-10T20:01:27.415Z,96040.07
2019-06-10T20:03:57.962Z,96022.32
2019-06-10T20:06:28.442Z,96011.64
2019-06-10T20:08:58.970Z,96025.61
2019-06-10T20:11:32.226Z,96019.73
2019-06-10T20:14:02.788Z,96012.73
2019-06-10T20:16:33.252Z,96004.20
2019-06-10T20:19:03.752Z,95998.91
2019-06-10T20:21:34.184Z,95991.53
2019-06-10T20:24:04.740Z,95982.05
2019-06-10T20:26:36.552Z,95966.88
2019-06-10T20:29:07.281Z,95959.08
2019-06-10T20:31:37.916Z,95960.48
2019-06-10T20:34:08.547Z,95974.13
2019-06-10T20:36:39.374Z,95966.19
2019-06-10T20:39:10.583Z,95969.29
2019-06-10T20:41:44.263Z,95962.87
2019-06-10T20:44:13.288Z,95970.38
2019-06-10T20:46:46.143Z,95974.86
2019-06-10T20:49:16.004Z,95961.39
2019-06-10T20:52:01.595Z,95956.34
2019-06-10T20:54:19.853Z,95954.14
2019-06-10T20:56:53.180Z,95956.56
2019-06-10T20:59:25.865Z,95960.38
2019-06-10T21:01:56.667Z,95946.55
2019-06-10T21:04:27.446Z,95947.49
2019-06-10T21:07:02.475Z,95950.37
2019-06-10T21:09:34.306Z,95952.02
2019-06-10T21:12:04.785Z,95952.25
2019-06-10T21:14:35.266Z,95948.21
2019-06-10T21:17:05.731Z,95948.70
2019-06-10T21:19:36.237Z,95950.62
2019-06-10T21:22:07.537Z,95950.41
2019-06-10T21:24:38.064Z,95952.47
2019-06-10T21:27:08.572Z,95945.14
2019-06-10T21:29:39.101Z,95950.44
2019-06-10T21:32:09.633Z,95963.41
2019-06-10T21:34:43.415Z,95955.47
2019-06-10T21:37:13.172Z,95968.70
2019-06-10T21:39:44.829Z,95981.38
2019-06-10T21:42:15.867Z,95971.15
2019-06-10T21:44:46.298Z,95973.11
2019-06-10T21:47:16.848Z,95974.39
2019-06-10T21:49:48.376Z,95966.69
2019-06-10T21:52:18.932Z,95968.05
2019-06-10T21:54:50.674Z,95964.86
2019-06-10T21:57:22.121Z,95960.47
2019-06-10T21:59:54.029Z,95961.38
2019-06-10T22:02:24.856Z,95971.16
2019-06-10T22:04:55.648Z,95964.61
2019-06-10T22:07:26.153Z,95964.17
2019-06-10T22:09:56.651Z,95975.08
2019-06-10T22:12:27.200Z,95983.92
2019-06-10T22:14:57.687Z,95977.14
2019-06-10T22:17:28.082Z,95966.67
2019-06-10T22:19:58.493Z,95977.73
2019-06-10T22:22:28.934Z,95978.98
2019-06-10T22:24:59.366Z,95975.78
2019-06-10T22:27:29.874Z,95982.32
2019-06-10T22:30:04.207Z,95992.89
2019-06-10T22:32:32.504Z,95996.94
2019-06-10T22:35:03.148Z,95992.45
2019-06-10T22:37:33.586Z,96008.17
2019-06-10T22:40:04.034Z,96020.95
2019-06-10T22:42:34.486Z,96017.28
2019-06-10T22:45:05.425Z,96031.97
2019-06-10T22:47:35.885Z,96038.06
2019-06-10T22:50:07.657Z,96038.43
2019-06-10T22:52:38.351Z,96028.66
2019-06-10T22:55:09.206Z,96024.73
2019-06-10T22:57:43.744Z,96024.73
2019-06-10T23:00:13.159Z,96006.92
2019-06-10T23:02:43.930Z,96018.20
2019-06-10T23:05:17.241Z,96007.17
2019-06-10T23:07:46.736Z,95997.38
2019-06-10T23:10:18.728Z,95991.64
2019-06-10T23:12:49.151Z,95993.95
2019-06-10T23:17:58.796Z,95987.16
2019-06-10T23:20:29.439Z,95979.89
2019-06-10T23:23:00.358Z,95969.80
2019-06-10T23:25:32.602Z,95958.08
2019-06-10T23:28:03.020Z,95964.50
2019-06-10T23:30:33.543Z,95960.72
2019-06-10T23:33:04.130Z,95957.94
2019-06-10T23:35:34.641Z,95948.64
2019-06-10T23:38:05.403Z,95955.30
2019-06-10T23:40:35.885Z,95961.05
2019-06-10T23:43:06.308Z,95961.75
2019-06-10T23:45:36.682Z,95965.42
2019-06-10T23:48:07.268Z,95973.94
2019-06-10T23:50:37.735Z,95970.94
2019-06-10T23:53:08.224Z,95964.84
2019-06-10T23:55:38.685Z,95964.39
2019-06-10T23:58:09.201Z,95970.02
